North Vidor, Texas
Current Conditions -  °F | °C
As of 12:15 PM on Sunday 25 Jan 2015 (Local Time) from KBMT Reporting Station
Clear Clear  
Wind Chill: 65°   Ceiling: Unl
Heat Index: 65°   Visibility: 10mi
Dew Point: 43°   Wind: 12mph
Humidity: 45%   Direction: 290°WNW
Pressure: 30.01"   Gusts: 16mph
Location:  30.1707°N, 94.0082°W
Report Text: KBMT 251815Z AUTO 29010G14KT 10SM CLR 18/06 A3001 RMK AO2 T01840062
Loading
Personal Weather Stations






























Interactive Weather Map New forecast layout! Learn more

10-Day Weather Forecast

Advertisements
Track Severe Weather on mobile